sensor_id;sensor_type;location;lat;lon;timestamp;pressure;altitude;pressure_sealevel;temperature;humidity
7730;BME280;3908;52.310;7.230;2022-10-16T00:01:58;51483.47;;;-145.83;100.00
7730;BME280;3908;52.310;7.230;2022-10-16T00:04:45;51483.47;;;-145.83;100.00
7730;BME280;3908;52.310;7.230;2022-10-16T00:07:32;51483.47;;;-145.83;100.00
7730;BME280;3908;52.310;7.230;2022-10-16T00:10:19;51467.84;;;-145.83;100.00
7730;BME280;3908;52.310;7.230;2022-10-16T00:13:08;51512.84;;;-145.83;100.00
7730;BME280;3908;52.310;7.230;2022-10-16T00:15:55;51497.19;;;-145.83;100.00
7730;BME280;3908;52.310;7.230;2022-10-16T00:18:43;51487.41;;;-145.83;100.00
7730;BME280;3908;52.310;7.230;2022-10-16T00:21:31;51479.56;;;-145.83;100.00
7730;BME280;3908;52.310;7.230;2022-10-16T00:24:18;51534.34;;;-145.83;100.00
7730;BME280;3908;52.310;7.230;2022-10-16T00:27:05;51520.66;;;-145.83;100.00
7730;BME280;3908;52.310;7.230;2022-10-16T00:29:53;51461.97;;;-145.83;100.00
7730;BME280;3908;52.310;7.230;2022-10-16T00:32:40;51491.31;;;-145.83;100.00
7730;BME280;3908;52.310;7.230;2022-10-16T00:35:27;51540.22;;;-145.83;100.00
7730;BME280;3908;52.310;7.230;2022-10-16T00:38:14;51499.13;;;-145.83;100.00
7730;BME280;3908;52.310;7.230;2022-10-16T00:41:01;51452.19;;;-145.83;100.00
7730;BME280;3908;52.310;7.230;2022-10-16T00:43:50;51465.88;;;-145.83;100.00
7730;BME280;3908;52.310;7.230;2022-10-16T00:46:40;51460.00;;;-145.83;100.00
7730;BME280;3908;52.310;7.230;2022-10-16T00:49:28;51505.00;;;-145.83;100.00
7730;BME280;3908;52.310;7.230;2022-10-16T00:52:16;51487.41;;;-145.83;100.00
7730;BME280;3908;52.310;7.230;2022-10-16T00:55:05;51505.00;;;-145.83;100.00
7730;BME280;3908;52.310;7.230;2022-10-16T00:57:53;51497.19;;;-145.83;100.00
7730;BME280;3908;52.310;7.230;2022-10-16T01:00:40;51495.22;;;-145.83;100.00
7730;BME280;3908;52.310;7.230;2022-10-16T01:03:31;51469.78;;;-145.83;100.00
7730;BME280;3908;52.310;7.230;2022-10-16T01:06:29;51446.31;;;-145.83;100.00
7730;BME280;3908;52.310;7.230;2022-10-16T01:09:21;51469.78;;;-145.83;100.00
7730;BME280;3908;52.310;7.230;2022-10-16T01:12:14;51497.19;;;-145.83;100.00
7730;BME280;3908;52.310;7.230;2022-10-16T01:15:08;51495.22;;;-145.83;100.00
7730;BME280;3908;52.310;7.230;2022-10-16T01:18:00;51485.44;;;-145.83;100.00
7730;BME280;3908;52.310;7.230;2022-10-16T01:20:54;51473.69;;;-145.83;100.00
7730;BME280;3908;52.310;7.230;2022-10-16T01:23:49;51475.66;;;-145.83;100.00
7730;BME280;3908;52.310;7.230;2022-10-16T01:26:50;51489.34;;;-145.83;100.00
7730;BME280;3908;52.310;7.230;2022-10-16T01:29:44;51469.78;;;-145.83;100.00
7730;BME280;3908;52.310;7.230;2022-10-16T01:32:38;51463.91;;;-145.83;100.00
7730;BME280;3908;52.310;7.230;2022-10-16T01:35:28;51467.84;;;-145.83;100.00
7730;BME280;3908;52.310;7.230;2022-10-16T01:38:19;51452.19;;;-145.83;100.00
7730;BME280;3908;52.310;7.230;2022-10-16T01:41:11;51463.91;;;-145.83;100.00
7730;BME280;3908;52.310;7.230;2022-10-16T01:44:03;51481.53;;;-145.83;100.00
7730;BME280;3908;52.310;7.230;2022-10-16T01:46:54;51465.88;;;-145.83;100.00
7730;BME280;3908;52.310;7.230;2022-10-16T01:49:42;51452.19;;;-145.83;100.00
7730;BME280;3908;52.310;7.230;2022-10-16T01:52:32;51510.88;;;-145.83;100.00
7730;BME280;3908;52.310;7.230;2022-10-16T01:55:24;51460.00;;;-145.83;100.00
7730;BME280;3908;52.310;7.230;2022-10-16T01:58:13;51503.06;;;-145.83;100.00
7730;BME280;3908;52.310;7.230;2022-10-16T02:01:02;51487.41;;;-145.83;100.00
7730;BME280;3908;52.310;7.230;2022-10-16T02:03:54;51489.34;;;-145.83;100.00
7730;BME280;3908;52.310;7.230;2022-10-16T02:06:43;51454.13;;;-145.83;100.00
7730;BME280;3908;52.310;7.230;2022-10-16T02:09:30;51503.06;;;-145.83;100.00
7730;BME280;3908;52.310;7.230;2022-10-16T02:12:24;51499.13;;;-145.83;100.00
7730;BME280;3908;52.310;7.230;2022-10-16T02:15:13;51495.22;;;-145.83;100.00
7730;BME280;3908;52.310;7.230;2022-10-16T02:18:01;51471.75;;;-145.83;100.00
7730;BME280;3908;52.310;7.230;2022-10-16T02:20:53;51499.13;;;-145.83;100.00
7730;BME280;3908;52.310;7.230;2022-10-16T02:23:45;51467.84;;;-145.83;100.00
7730;BME280;3908;52.310;7.230;2022-10-16T02:26:40;51522.63;;;-145.83;100.00
7730;BME280;3908;52.310;7.230;2022-10-16T02:29:29;51454.13;;;-145.83;100.00
7730;BME280;3908;52.310;7.230;2022-10-16T02:32:20;51518.69;;;-145.83;100.00
7730;BME280;3908;52.310;7.230;2022-10-16T02:35:08;51479.56;;;-145.83;100.00
7730;BME280;3908;52.310;7.230;2022-10-16T02:37:57;51491.31;;;-145.83;100.00
7730;BME280;3908;52.310;7.230;2022-10-16T02:40:45;51522.63;;;-145.83;100.00
7730;BME280;3908;52.310;7.230;2022-10-16T02:43:33;51497.19;;;-145.83;100.00
7730;BME280;3908;52.310;7.230;2022-10-16T02:46:20;51557.81;;;-145.83;100.00
7730;BME280;3908;52.310;7.230;2022-10-16T02:49:07;51508.91;;;-145.83;100.00
7730;BME280;3908;52.310;7.230;2022-10-16T02:51:54;51495.22;;;-145.83;100.00
7730;BME280;3908;52.310;7.230;2022-10-16T02:54:43;51518.69;;;-145.83;100.00
7730;BME280;3908;52.310;7.230;2022-10-16T02:57:29;51489.34;;;-145.83;100.00
7730;BME280;3908;52.310;7.230;2022-10-16T03:00:17;51495.22;;;-145.83;100.00
7730;BME280;3908;52.310;7.230;2022-10-16T03:03:04;51477.63;;;-145.83;100.00
7730;BME280;3908;52.310;7.230;2022-10-16T03:05:51;51487.41;;;-145.83;100.00
7730;BME280;3908;52.310;7.230;2022-10-16T03:08:38;51505.00;;;-145.83;100.00
7730;BME280;3908;52.310;7.230;2022-10-16T03:11:27;51473.69;;;-145.83;100.00
7730;BME280;3908;52.310;7.230;2022-10-16T03:14:14;51512.84;;;-145.83;100.00
7730;BME280;3908;52.310;7.230;2022-10-16T03:17:01;51518.69;;;-145.83;100.00
7730;BME280;3908;52.310;7.230;2022-10-16T03:19:48;51481.53;;;-145.83;100.00
7730;BME280;3908;52.310;7.230;2022-10-16T03:22:35;51532.41;;;-145.83;100.00
7730;BME280;3908;52.310;7.230;2022-10-16T03:25:22;51508.91;;;-145.83;100.00
7730;BME280;3908;52.310;7.230;2022-10-16T03:28:10;51505.00;;;-145.83;100.00
7730;BME280;3908;52.310;7.230;2022-10-16T03:30:57;51493.25;;;-145.83;100.00
7730;BME280;3908;52.310;7.230;2022-10-16T03:33:44;51495.22;;;-145.83;100.00
7730;BME280;3908;52.310;7.230;2022-10-16T03:36:31;51465.88;;;-145.83;100.00
7730;BME280;3908;52.310;7.230;2022-10-16T03:39:18;51501.09;;;-145.83;100.00
7730;BME280;3908;52.310;7.230;2022-10-16T03:42:05;51528.47;;;-145.83;100.00
7730;BME280;3908;52.310;7.230;2022-10-16T03:44:54;51485.44;;;-145.83;100.00
7730;BME280;3908;52.310;7.230;2022-10-16T03:47:41;51530.44;;;-145.83;100.00
7730;BME280;3908;52.310;7.230;2022-10-16T03:50:28;51497.19;;;-145.83;100.00
7730;BME280;3908;52.310;7.230;2022-10-16T03:53:15;51506.97;;;-145.83;100.00
7730;BME280;3908;52.310;7.230;2022-10-16T03:56:02;51489.34;;;-145.83;100.00
7730;BME280;3908;52.310;7.230;2022-10-16T03:58:49;51495.22;;;-145.83;100.00
7730;BME280;3908;52.310;7.230;2022-10-16T04:01:37;51532.41;;;-145.83;100.00
7730;BME280;3908;52.310;7.230;2022-10-16T04:04:24;51497.19;;;-145.83;100.00
7730;BME280;3908;52.310;7.230;2022-10-16T04:07:11;51516.75;;;-145.83;100.00
7730;BME280;3908;52.310;7.230;2022-10-16T04:09:58;51485.44;;;-145.83;100.00
7730;BME280;3908;52.310;7.230;2022-10-16T04:12:45;51516.75;;;-145.83;100.00
7730;BME280;3908;52.310;7.230;2022-10-16T04:15:32;51497.19;;;-145.83;100.00
7730;BME280;3908;52.310;7.230;2022-10-16T04:18:21;51487.41;;;-145.83;100.00
7730;BME280;3908;52.310;7.230;2022-10-16T04:21:08;51497.19;;;-145.83;100.00
7730;BME280;3908;52.310;7.230;2022-10-16T04:23:55;51487.41;;;-145.83;100.00
7730;BME280;3908;52.310;7.230;2022-10-16T04:26:42;51503.06;;;-145.83;100.00
7730;BME280;3908;52.310;7.230;2022-10-16T04:29:29;51534.34;;;-145.83;100.00
7730;BME280;3908;52.310;7.230;2022-10-16T04:32:16;51495.22;;;-145.83;100.00
7730;BME280;3908;52.310;7.230;2022-10-16T04:35:06;51465.88;;;-145.83;100.00
7730;BME280;3908;52.310;7.230;2022-10-16T04:37:53;51469.78;;;-145.83;100.00
7730;BME280;3908;52.310;7.230;2022-10-16T04:40:41;51489.34;;;-145.83;100.00
7730;BME280;3908;52.310;7.230;2022-10-16T04:43:28;51501.09;;;-145.83;100.00
7730;BME280;3908;52.310;7.230;2022-10-16T04:46:15;51512.84;;;-145.83;100.00
7730;BME280;3908;52.310;7.230;2022-10-16T04:49:02;51479.56;;;-145.83;100.00
7730;BME280;3908;52.310;7.230;2022-10-16T04:51:51;51479.56;;;-145.83;100.00
7730;BME280;3908;52.310;7.230;2022-10-16T04:54:38;51489.34;;;-145.83;100.00
7730;BME280;3908;52.310;7.230;2022-10-16T04:57:25;51497.19;;;-145.83;100.00
7730;BME280;3908;52.310;7.230;2022-10-16T05:00:12;51450.22;;;-145.83;100.00
7730;BME280;3908;52.310;7.230;2022-10-16T05:03:00;51505.00;;;-145.83;100.00
7730;BME280;3908;52.310;7.230;2022-10-16T05:05:47;51512.84;;;-145.83;100.00
7730;BME280;3908;52.310;7.230;2022-10-16T05:08:35;51491.31;;;-145.83;100.00
7730;BME280;3908;52.310;7.230;2022-10-16T05:11:22;51510.88;;;-145.83;100.00
7730;BME280;3908;52.310;7.230;2022-10-16T05:14:09;51508.91;;;-145.83;100.00
7730;BME280;3908;52.310;7.230;2022-10-16T05:16:56;51495.22;;;-145.83;100.00
7730;BME280;3908;52.310;7.230;2022-10-16T05:19:44;51485.44;;;-145.83;100.00
7730;BME280;3908;52.310;7.230;2022-10-16T05:22:31;51506.97;;;-145.83;100.00
7730;BME280;3908;52.310;7.230;2022-10-16T05:25:19;51550.00;;;-145.83;100.00
7730;BME280;3908;52.310;7.230;2022-10-16T05:28:06;51487.41;;;-145.83;100.00
7730;BME280;3908;52.310;7.230;2022-10-16T05:30:53;51520.66;;;-145.83;100.00
7730;BME280;3908;52.310;7.230;2022-10-16T05:33:40;51477.63;;;-145.83;100.00
7730;BME280;3908;52.310;7.230;2022-10-16T05:36:29;51489.34;;;-145.83;100.00
7730;BME280;3908;52.310;7.230;2022-10-16T05:39:16;51520.66;;;-145.83;100.00
7730;BME280;3908;52.310;7.230;2022-10-16T05:42:05;51491.31;;;-145.83;100.00
7730;BME280;3908;52.310;7.230;2022-10-16T05:44:52;51463.91;;;-145.83;100.00
7730;BME280;3908;52.310;7.230;2022-10-16T05:47:39;51499.13;;;-145.83;100.00
7730;BME280;3908;52.310;7.230;2022-10-16T05:50:27;51505.00;;;-145.83;100.00
7730;BME280;3908;52.310;7.230;2022-10-16T05:53:14;51522.63;;;-145.83;100.00
7730;BME280;3908;52.310;7.230;2022-10-16T05:56:02;51520.66;;;-145.83;100.00
7730;BME280;3908;52.310;7.230;2022-10-16T05:58:50;51493.25;;;-145.83;100.00
7730;BME280;3908;52.310;7.230;2022-10-16T06:01:37;51503.06;;;-145.83;100.00
7730;BME280;3908;52.310;7.230;2022-10-16T06:04:24;51503.06;;;-145.83;100.00
7730;BME280;3908;52.310;7.230;2022-10-16T06:07:11;51461.97;;;-145.83;100.00
7730;BME280;3908;52.310;7.230;2022-10-16T06:09:58;51469.78;;;-145.83;100.00
7730;BME280;3908;52.310;7.230;2022-10-16T06:12:45;51495.22;;;-145.83;100.00
7730;BME280;3908;52.310;7.230;2022-10-16T06:15:34;51499.13;;;-145.83;100.00
7730;BME280;3908;52.310;7.230;2022-10-16T06:18:20;51495.22;;;-145.83;100.00
7730;BME280;3908;52.310;7.230;2022-10-16T06:21:09;51508.91;;;-145.83;100.00
7730;BME280;3908;52.310;7.230;2022-10-16T06:23:57;51493.25;;;-145.83;100.00
7730;BME280;3908;52.310;7.230;2022-10-16T06:26:44;51516.75;;;-145.83;100.00
7730;BME280;3908;52.310;7.230;2022-10-16T06:29:31;51479.56;;;-145.83;100.00
7730;BME280;3908;52.310;7.230;2022-10-16T06:32:19;51499.13;;;-145.83;100.00
7730;BME280;3908;52.310;7.230;2022-10-16T06:35:07;51505.00;;;-145.83;100.00
7730;BME280;3908;52.310;7.230;2022-10-16T06:37:54;51489.34;;;-145.83;100.00
7730;BME280;3908;52.310;7.230;2022-10-16T06:40:41;51505.00;;;-145.83;100.00
7730;BME280;3908;52.310;7.230;2022-10-16T06:43:29;51485.44;;;-145.83;100.00
7730;BME280;3908;52.310;7.230;2022-10-16T06:46:19;51506.97;;;-145.83;100.00
7730;BME280;3908;52.310;7.230;2022-10-16T06:49:08;51508.91;;;-145.83;100.00
7730;BME280;3908;52.310;7.230;2022-10-16T06:51:55;51489.34;;;-145.83;100.00
7730;BME280;3908;52.310;7.230;2022-10-16T06:54:42;51546.09;;;-145.83;100.00
7730;BME280;3908;52.310;7.230;2022-10-16T06:57:29;51503.06;;;-145.83;100.00
7730;BME280;3908;52.310;7.230;2022-10-16T07:00:16;51499.13;;;-145.83;100.00
7730;BME280;3908;52.310;7.230;2022-10-16T07:03:03;51524.56;;;-145.83;100.00
7730;BME280;3908;52.310;7.230;2022-10-16T07:05:51;51510.88;;;-145.83;100.00
7730;BME280;3908;52.310;7.230;2022-10-16T07:08:40;51573.47;;;-145.83;100.00
7730;BME280;3908;52.310;7.230;2022-10-16T07:11:27;51536.31;;;-145.83;100.00
7730;BME280;3908;52.310;7.230;2022-10-16T07:14:16;51532.41;;;-145.83;100.00
7730;BME280;3908;52.310;7.230;2022-10-16T07:17:03;51530.44;;;-145.83;100.00
7730;BME280;3908;52.310;7.230;2022-10-16T07:19:52;51548.03;;;-145.83;100.00
7730;BME280;3908;52.310;7.230;2022-10-16T07:22:42;51526.53;;;-145.83;100.00
7730;BME280;3908;52.310;7.230;2022-10-16T07:25:29;51516.75;;;-145.83;100.00
7730;BME280;3908;52.310;7.230;2022-10-16T07:28:16;51528.47;;;-145.83;100.00
7730;BME280;3908;52.310;7.230;2022-10-16T07:31:03;51544.13;;;-145.83;100.00
7730;BME280;3908;52.310;7.230;2022-10-16T07:33:51;51530.44;;;-145.83;100.00
7730;BME280;3908;52.310;7.230;2022-10-16T07:36:38;51551.97;;;-145.83;100.00
7730;BME280;3908;52.310;7.230;2022-10-16T07:39:26;51538.25;;;-145.83;100.00
7730;BME280;3908;52.310;7.230;2022-10-16T07:42:13;51524.56;;;-145.83;100.00
7730;BME280;3908;52.310;7.230;2022-10-16T07:45:00;51542.19;;;-145.83;100.00
7730;BME280;3908;52.310;7.230;2022-10-16T07:47:49;51546.09;;;-145.83;100.00
7730;BME280;3908;52.310;7.230;2022-10-16T07:50:37;51565.66;;;-145.83;100.00
7730;BME280;3908;52.310;7.230;2022-10-16T07:53:24;51569.56;;;-145.83;100.00
7730;BME280;3908;52.310;7.230;2022-10-16T07:56:13;51542.19;;;-145.83;100.00
7730;BME280;3908;52.310;7.230;2022-10-16T07:59:01;51561.75;;;-145.83;100.00
7730;BME280;3908;52.310;7.230;2022-10-16T08:01:48;51595.00;;;-145.83;100.00
7730;BME280;3908;52.310;7.230;2022-10-16T08:04:38;51557.81;;;-145.83;100.00
7730;BME280;3908;52.310;7.230;2022-10-16T08:07:26;51573.47;;;-145.83;100.00
7730;BME280;3908;52.310;7.230;2022-10-16T08:10:16;51559.78;;;-145.83;100.00
7730;BME280;3908;52.310;7.230;2022-10-16T08:13:05;51536.31;;;-145.83;100.00
7730;BME280;3908;52.310;7.230;2022-10-16T08:15:53;51546.09;;;-145.83;100.00
7730;BME280;3908;52.310;7.230;2022-10-16T08:18:41;51591.09;;;-145.83;100.00
7730;BME280;3908;52.310;7.230;2022-10-16T08:21:28;51569.56;;;-145.83;100.00
7730;BME280;3908;52.310;7.230;2022-10-16T08:24:16;51561.75;;;-145.83;100.00
7730;BME280;3908;52.310;7.230;2022-10-16T08:27:03;51542.19;;;-145.83;100.00
7730;BME280;3908;52.310;7.230;2022-10-16T08:29:52;51573.47;;;-145.83;100.00
7730;BME280;3908;52.310;7.230;2022-10-16T08:32:39;51544.13;;;-145.83;100.00
7730;BME280;3908;52.310;7.230;2022-10-16T08:35:27;51569.56;;;-145.83;100.00
7730;BME280;3908;52.310;7.230;2022-10-16T08:38:14;51565.66;;;-145.83;100.00
7730;BME280;3908;52.310;7.230;2022-10-16T08:41:22;51585.22;;;-145.83;100.00
7730;BME280;3908;52.310;7.230;2022-10-16T08:44:31;51546.09;;;-145.83;100.00
7730;BME280;3908;52.310;7.230;2022-10-16T08:47:26;51589.13;;;-145.83;100.00
7730;BME280;3908;52.310;7.230;2022-10-16T08:50:23;51583.25;;;-145.83;100.00
7730;BME280;3908;52.310;7.230;2022-10-16T08:53:15;51577.41;;;-145.83;100.00
7730;BME280;3908;52.310;7.230;2022-10-16T08:56:04;51569.56;;;-145.83;100.00
7730;BME280;3908;52.310;7.230;2022-10-16T08:58:52;51540.22;;;-145.83;100.00
7730;BME280;3908;52.310;7.230;2022-10-16T09:01:41;51530.44;;;-145.83;100.00
7730;BME280;3908;52.310;7.230;2022-10-16T09:04:54;51591.09;;;-145.83;100.00
7730;BME280;3908;52.310;7.230;2022-10-16T09:07:52;51606.75;;;-145.83;100.00
7730;BME280;3908;52.310;7.230;2022-10-16T09:10:48;51565.66;;;-145.83;100.00
7730;BME280;3908;52.310;7.230;2022-10-16T09:13:49;51565.66;;;-145.83;100.00
7730;BME280;3908;52.310;7.230;2022-10-16T09:17:03;51569.56;;;-145.83;100.00
7730;BME280;3908;52.310;7.230;2022-10-16T09:20:12;51575.44;;;-145.83;100.00
7730;BME280;3908;52.310;7.230;2022-10-16T09:23:12;51591.09;;;-145.83;99.10
7730;BME280;3908;52.310;7.230;2022-10-16T09:26:01;51548.03;;;-145.83;94.64
7730;BME280;3908;52.310;7.230;2022-10-16T09:28:51;51567.59;;;-145.83;95.00
7730;BME280;3908;52.310;7.230;2022-10-16T09:31:40;51546.09;;;-145.83;98.63
7730;BME280;3908;52.310;7.230;2022-10-16T09:34:30;51585.22;;;-145.83;96.55
7730;BME280;3908;52.310;7.230;2022-10-16T09:37:22;51591.09;;;-145.83;92.35
7730;BME280;3908;52.310;7.230;2022-10-16T09:40:24;51567.59;;;-145.83;88.06
7730;BME280;3908;52.310;7.230;2022-10-16T09:43:20;51593.03;;;-145.83;89.54
7730;BME280;3908;52.310;7.230;2022-10-16T09:46:21;51571.53;;;-145.83;88.28
7730;BME280;3908;52.310;7.230;2022-10-16T09:49:20;51589.13;;;-145.83;86.80
7730;BME280;3908;52.310;7.230;2022-10-16T09:52:12;51559.78;;;-145.83;86.67
7730;BME280;3908;52.310;7.230;2022-10-16T09:55:09;51595.00;;;-145.83;89.51
7730;BME280;3908;52.310;7.230;2022-10-16T09:58:02;51571.53;;;-145.83;85.60
7730;BME280;3908;52.310;7.230;2022-10-16T10:00:51;51548.03;;;-145.83;88.92
7730;BME280;3908;52.310;7.230;2022-10-16T10:03:42;51565.66;;;-145.83;88.11
7730;BME280;3908;52.310;7.230;2022-10-16T10:06:33;51575.44;;;-145.83;88.49
7730;BME280;3908;52.310;7.230;2022-10-16T10:09:24;51591.09;;;-145.83;88.42
7730;BME280;3908;52.310;7.230;2022-10-16T10:12:20;51565.66;;;-145.83;86.19
7730;BME280;3908;52.310;7.230;2022-10-16T10:15:11;51593.03;;;-145.83;81.95
7730;BME280;3908;52.310;7.230;2022-10-16T10:17:58;51567.59;;;-145.83;81.61
7730;BME280;3908;52.310;7.230;2022-10-16T10:20:57;51579.34;;;-145.83;82.82
7730;BME280;3908;52.310;7.230;2022-10-16T10:23:55;51569.56;;;-145.83;85.31
7730;BME280;3908;52.310;7.230;2022-10-16T10:26:49;51602.81;;;-145.83;81.11
7730;BME280;3908;52.310;7.230;2022-10-16T10:29:48;51555.88;;;-145.83;82.61
7730;BME280;3908;52.310;7.230;2022-10-16T10:32:44;51569.56;;;-145.83;79.52
7730;BME280;3908;52.310;7.230;2022-10-16T10:35:41;51593.03;;;-145.83;78.33
7730;BME280;3908;52.310;7.230;2022-10-16T10:38:36;51628.25;;;-145.83;78.22
7730;BME280;3908;52.310;7.230;2022-10-16T10:42:01;51589.13;;;-145.83;76.07
7730;BME280;3908;52.310;7.230;2022-10-16T10:45:07;51600.88;;;-145.83;76.39
7730;BME280;3908;52.310;7.230;2022-10-16T10:51:28;51589.13;;;-145.83;74.62
7730;BME280;3908;52.310;7.230;2022-10-16T10:54:24;51534.34;;;-145.83;73.78
7730;BME280;3908;52.310;7.230;2022-10-16T10:57:22;51575.44;;;-145.83;74.59
7730;BME280;3908;52.310;7.230;2022-10-16T11:00:21;51587.19;;;-145.83;74.49
7730;BME280;3908;52.310;7.230;2022-10-16T11:03:16;51610.66;;;-145.83;70.49
7730;BME280;3908;52.310;7.230;2022-10-16T11:06:11;51608.69;;;-145.83;69.90
7730;BME280;3908;52.310;7.230;2022-10-16T11:09:02;51583.25;;;-145.83;69.75
7730;BME280;3908;52.310;7.230;2022-10-16T11:12:00;51595.00;;;-145.83;70.43
7730;BME280;3908;52.310;7.230;2022-10-16T11:14:52;51610.66;;;-145.83;71.66
7730;BME280;3908;52.310;7.230;2022-10-16T11:17:48;51593.03;;;-145.83;70.45
7730;BME280;3908;52.310;7.230;2022-10-16T11:20:41;51589.13;;;-145.83;71.80
7730;BME280;3908;52.310;7.230;2022-10-16T11:23:35;51616.53;;;-145.83;70.68
7730;BME280;3908;52.310;7.230;2022-10-16T11:26:27;51641.94;;;-145.83;70.05
7730;BME280;3908;52.310;7.230;2022-10-16T11:29:19;51598.91;;;-145.83;69.92
7730;BME280;3908;52.310;7.230;2022-10-16T11:32:20;51595.00;;;-145.83;68.41
7730;BME280;3908;52.310;7.230;2022-10-16T11:35:17;51632.16;;;-145.83;68.54
7730;BME280;3908;52.310;7.230;2022-10-16T11:38:14;51585.22;;;-145.83;67.59
7730;BME280;3908;52.310;7.230;2022-10-16T11:41:12;51591.09;;;-145.83;67.79
7730;BME280;3908;52.310;7.230;2022-10-16T11:44:16;51595.00;;;-145.83;67.14
7730;BME280;3908;52.310;7.230;2022-10-16T11:47:13;51618.47;;;-145.83;65.44
7730;BME280;3908;52.310;7.230;2022-10-16T11:50:22;51589.13;;;-145.83;64.40
7730;BME280;3908;52.310;7.230;2022-10-16T11:53:16;51587.19;;;-145.83;65.37
7730;BME280;3908;52.310;7.230;2022-10-16T11:56:12;51596.97;;;-145.83;65.31
7730;BME280;3908;52.310;7.230;2022-10-16T11:59:02;51595.00;;;-145.83;66.40
7730;BME280;3908;52.310;7.230;2022-10-16T12:01:54;51571.53;;;-145.83;64.27
7730;BME280;3908;52.310;7.230;2022-10-16T12:04:48;51567.59;;;-145.83;65.10
7730;BME280;3908;52.310;7.230;2022-10-16T12:07:41;51565.66;;;-145.83;64.61
7730;BME280;3908;52.310;7.230;2022-10-16T12:10:35;51551.97;;;-145.83;63.79
7730;BME280;3908;52.310;7.230;2022-10-16T12:13:31;51616.53;;;-145.83;64.32
7730;BME280;3908;52.310;7.230;2022-10-16T12:16:23;51596.97;;;-145.83;63.44
7730;BME280;3908;52.310;7.230;2022-10-16T12:19:13;51587.19;;;-145.83;64.26
7730;BME280;3908;52.310;7.230;2022-10-16T12:22:02;51610.66;;;-145.83;61.71
7730;BME280;3908;52.310;7.230;2022-10-16T12:24:51;51577.41;;;-145.83;61.13
7730;BME280;3908;52.310;7.230;2022-10-16T12:27:40;51581.31;;;-145.83;60.61
7730;BME280;3908;52.310;7.230;2022-10-16T12:30:29;51579.34;;;-145.83;60.99
7730;BME280;3908;52.310;7.230;2022-10-16T12:33:22;51585.22;;;-145.83;59.72
7730;BME280;3908;52.310;7.230;2022-10-16T12:36:14;51585.22;;;-145.83;60.75
7730;BME280;3908;52.310;7.230;2022-10-16T12:39:02;51579.34;;;-145.83;62.42
7730;BME280;3908;52.310;7.230;2022-10-16T12:42:01;51575.44;;;-145.83;60.40
7730;BME280;3908;52.310;7.230;2022-10-16T12:44:50;51577.41;;;-145.83;60.77
7730;BME280;3908;52.310;7.230;2022-10-16T12:47:48;51550.00;;;-145.83;62.20
7730;BME280;3908;52.310;7.230;2022-10-16T12:50:37;51559.78;;;-145.83;61.98
7730;BME280;3908;52.310;7.230;2022-10-16T12:53:26;51585.22;;;-145.83;60.42
7730;BME280;3908;52.310;7.230;2022-10-16T12:56:19;51548.03;;;-145.83;61.58
7730;BME280;3908;52.310;7.230;2022-10-16T12:59:18;51602.81;;;-145.83;61.85
7730;BME280;3908;52.310;7.230;2022-10-16T13:02:49;51593.03;;;-145.83;61.34
7730;BME280;3908;52.310;7.230;2022-10-16T13:05:48;51561.75;;;-145.83;59.76
7730;BME280;3908;52.310;7.230;2022-10-16T13:08:56;51612.59;;;-145.83;60.38
7730;BME280;3908;52.310;7.230;2022-10-16T13:12:22;51565.66;;;-145.83;60.86
7730;BME280;3908;52.310;7.230;2022-10-16T13:15:22;51579.34;;;-145.83;61.55
7730;BME280;3908;52.310;7.230;2022-10-16T13:18:18;51561.75;;;-145.83;63.98
7730;BME280;3908;52.310;7.230;2022-10-16T13:21:18;51563.69;;;-145.83;62.17
7730;BME280;3908;52.310;7.230;2022-10-16T13:24:16;51577.41;;;-145.83;61.62
7730;BME280;3908;52.310;7.230;2022-10-16T13:27:09;51542.19;;;-145.83;63.60
7730;BME280;3908;52.310;7.230;2022-10-16T13:30:02;51542.19;;;-145.83;62.93
7730;BME280;3908;52.310;7.230;2022-10-16T13:33:00;51595.00;;;-145.83;nan
7730;BME280;3908;52.310;7.230;2022-10-16T13:35:50;51557.81;;;-145.83;62.55
7730;BME280;3908;52.310;7.230;2022-10-16T13:38:38;51555.88;;;-145.83;63.84
7730;BME280;3908;52.310;7.230;2022-10-16T13:41:25;51569.56;;;-145.83;62.84
7730;BME280;3908;52.310;7.230;2022-10-16T13:44:14;51551.97;;;-145.83;61.77
7730;BME280;3908;52.310;7.230;2022-10-16T13:47:04;51575.44;;;-145.83;62.41
7730;BME280;3908;52.310;7.230;2022-10-16T13:49:59;51575.44;;;-145.83;62.93
7730;BME280;3908;52.310;7.230;2022-10-16T13:52:48;51551.97;;;-145.83;61.98
7730;BME280;3908;52.310;7.230;2022-10-16T13:55:36;51561.75;;;-145.83;62.60
7730;BME280;3908;52.310;7.230;2022-10-16T13:58:23;51589.13;;;-145.83;62.79
7730;BME280;3908;52.310;7.230;2022-10-16T14:01:16;51550.00;;;-145.83;61.86
7730;BME280;3908;52.310;7.230;2022-10-16T14:04:06;51573.47;;;-145.83;62.93
7730;BME280;3908;52.310;7.230;2022-10-16T14:06:54;51551.97;;;-145.83;63.29
7730;BME280;3908;52.310;7.230;2022-10-16T14:09:47;51571.53;;;-145.83;63.81
7730;BME280;3908;52.310;7.230;2022-10-16T14:12:38;51550.00;;;-145.83;65.08
7730;BME280;3908;52.310;7.230;2022-10-16T14:15:25;51548.03;;;-145.83;63.84
7730;BME280;3908;52.310;7.230;2022-10-16T14:18:16;51596.97;;;-145.83;64.90
7730;BME280;3908;52.310;7.230;2022-10-16T14:21:06;51550.00;;;-145.83;63.57
7730;BME280;3908;52.310;7.230;2022-10-16T14:23:53;51587.19;;;-145.83;61.80
7730;BME280;3908;52.310;7.230;2022-10-16T14:26:43;51563.69;;;-145.83;61.90
7730;BME280;3908;52.310;7.230;2022-10-16T14:29:30;51602.81;;;-145.83;61.81
7730;BME280;3908;52.310;7.230;2022-10-16T14:32:26;51577.41;;;-145.83;64.19
7730;BME280;3908;52.310;7.230;2022-10-16T14:35:25;51548.03;;;-145.83;64.45
7730;BME280;3908;52.310;7.230;2022-10-16T14:38:18;51550.00;;;-145.83;62.72
7730;BME280;3908;52.310;7.230;2022-10-16T14:41:06;51557.81;;;-145.83;63.32
7730;BME280;3908;52.310;7.230;2022-10-16T14:43:56;51522.63;;;-145.83;64.47
7730;BME280;3908;52.310;7.230;2022-10-16T14:46:47;51536.31;;;-145.83;63.40
7730;BME280;3908;52.310;7.230;2022-10-16T14:49:34;51546.09;;;-145.83;64.70
7730;BME280;3908;52.310;7.230;2022-10-16T14:52:21;51583.25;;;-145.83;62.74
7730;BME280;3908;52.310;7.230;2022-10-16T14:55:09;51548.03;;;-145.83;64.03
7730;BME280;3908;52.310;7.230;2022-10-16T14:57:56;51561.75;;;-145.83;64.51
7730;BME280;3908;52.310;7.230;2022-10-16T15:00:45;51534.34;;;-145.83;65.11